Terminal Aerodrome Forecast
Issued by NWS

Home | Current Version | Previous Version | Text Only | Print | Product List | Glossary On
Versions: 1 2 3 4 5 6 7 8 9 10 11 12 13 14 15 16 17 18 19 20 21 22 23 24 25 26 27 28 29 30 31 32 33 34 35 36 37 38 39 40 41 42 43 44 45 46 47 48 49 50
000
FTUS45 KBOU 302320
TAFAPA
TAF
KAPA 302320Z 0100/0124 31006KT P6SM SCT080 BKN140
     FM010200 25006KT P6SM SCT080 BKN140
     FM010500 21008KT P6SM SCT080 BKN140
     FM011600 08008KT P6SM SCT090 BKN140
     FM012000 06011KT P6SM VCTS SCT040CB BKN070
      TEMPO 0120/0124 5SM SHRA SCT020 OVC040=

USA.gov is the U.S. government's official web portal to all federal, state and local government web resources and services.